createdAt,value
2022-08-26T00:00:09.656Z,101078.44
2022-08-26T00:02:41.634Z,101084.59
2022-08-26T00:05:12.568Z,101081.88
2022-08-26T00:07:40.762Z,101073.63
2022-08-26T00:10:12.639Z,101057.44
2022-08-26T00:12:41.393Z,101051.25
2022-08-26T00:15:13.307Z,101056.41
2022-08-26T00:17:41.706Z,101062.44
2022-08-26T00:20:11.469Z,101066.38
2022-08-26T00:22:39.426Z,101064.44
2022-08-26T00:25:12.785Z,101066.72
2022-08-26T00:27:40.964Z,101062.22
2022-08-26T00:30:12.695Z,101065.97
2022-08-26T00:32:41.750Z,101061.25
2022-08-26T00:35:15.336Z,101051.72
2022-08-26T00:37:43.965Z,101055.19
2022-08-26T00:40:18.993Z,101053.59
2022-08-26T00:42:46.782Z,101063.25
2022-08-26T00:45:22.578Z,101065.50
2022-08-26T00:47:56.726Z,101073.53
2022-08-26T00:50:32.048Z,101074.63
2022-08-26T00:53:02.778Z,101078.28
2022-08-26T00:55:38.028Z,101070.56
2022-08-26T00:58:07.796Z,101070.91
2022-08-26T01:00:36.395Z,101072.66
2022-08-26T01:03:05.193Z,101069.06
2022-08-26T01:05:33.171Z,101070.53
2022-08-26T01:08:03.596Z,101063.84
2022-08-26T01:10:31.977Z,101062.91
2022-08-26T01:13:10.666Z,101061.72
2022-08-26T01:15:45.825Z,101062.28
2022-08-26T01:18:16.419Z,101067.25
2022-08-26T01:21:03.851Z,101064.34
2022-08-26T01:23:38.824Z,101059.09
2022-08-26T01:26:19.400Z,101055.25
2022-08-26T01:28:55.769Z,101055.84
2022-08-26T01:31:33.811Z,101050.97
2022-08-26T01:34:22.743Z,101046.06
2022-08-26T01:36:54.929Z,101056.38
2022-08-26T01:39:22.780Z,101062.59
2022-08-26T01:41:54.841Z,101073.00
2022-08-26T01:44:27.553Z,101080.63
2022-08-26T01:46:57.388Z,101087.69
2022-08-26T01:49:27.647Z,101079.81
2022-08-26T01:51:57.826Z,101091.72
2022-08-26T01:54:30.408Z,101088.59
2022-08-26T01:56:59.294Z,101078.28
2022-08-26T01:59:27.448Z,101085.34
2022-08-26T02:01:55.278Z,101090.31
2022-08-26T02:04:38.710Z,101086.84
2022-08-26T02:07:10.136Z,101084.69
2022-08-26T02:09:41.224Z,101084.38
2022-08-26T02:12:12.358Z,101077.56
2022-08-26T02:14:44.528Z,101087.34
2022-08-26T02:17:13.625Z,101082.69
2022-08-26T02:19:45.599Z,101086.84
2022-08-26T02:22:17.039Z,101086.22
2022-08-26T02:24:47.866Z,101076.16
2022-08-26T02:27:21.065Z,101084.22
2022-08-26T02:29:55.362Z,101087.09
2022-08-26T02:32:24.965Z,101073.06
2022-08-26T02:34:54.803Z,101078.88
2022-08-26T02:37:23.025Z,101082.38
2022-08-26T02:39:50.665Z,101087.25
2022-08-26T02:42:19.671Z,101082.66
2022-08-26T02:44:47.577Z,101085.34
2022-08-26T02:47:15.674Z,101083.69
2022-08-26T02:49:44.627Z,101077.78
2022-08-26T02:52:20.054Z,101081.88
2022-08-26T02:54:49.620Z,101089.66
2022-08-26T02:57:17.271Z,101089.81
2022-08-26T02:59:45.077Z,101086.94
2022-08-26T03:02:13.375Z,101087.88
2022-08-26T03:04:41.405Z,101087.63
2022-08-26T03:07:25.561Z,101084.59
2022-08-26T03:09:53.610Z,101079.59
2022-08-26T03:12:21.069Z,101086.63
2022-08-26T03:14:49.096Z,101080.81
2022-08-26T03:17:16.613Z,101081.00
2022-08-26T03:19:57.048Z,101081.78
2022-08-26T03:22:25.978Z,101072.13
2022-08-26T03:25:03.845Z,101076.44
2022-08-26T03:27:31.153Z,101081.66
2022-08-26T03:30:19.947Z,101083.16
2022-08-26T03:32:47.853Z,101080.50
2022-08-26T03:35:16.521Z,101083.91
2022-08-26T03:37:44.720Z,101092.50
2022-08-26T03:40:14.242Z,101091.97
2022-08-26T03:42:45.316Z,101079.53
2022-08-26T03:45:13.729Z,101086.59
2022-08-26T03:47:43.560Z,101095.72
2022-08-26T03:50:14.693Z,101092.19
2022-08-26T03:52:44.111Z,101098.34
2022-08-26T03:55:12.675Z,101111.16
2022-08-26T03:57:41.036Z,101115.75
2022-08-26T04:00:18.392Z,101115.09
2022-08-26T04:02:53.489Z,101128.75
2022-08-26T04:05:24.306Z,101129.94
2022-08-26T04:07:52.405Z,101137.59
2022-08-26T04:10:28.922Z,101138.50
2022-08-26T04:13:36.744Z,101140.63
2022-08-26T04:16:04.610Z,101146.03
2022-08-26T04:21:34.609Z,101145.56
2022-08-26T04:24:03.639Z,101149.66
2022-08-26T04:26:39.552Z,101141.03
2022-08-26T04:29:14.977Z,101142.50
2022-08-26T04:31:42.875Z,101137.78
2022-08-26T04:34:11.298Z,101132.59
2022-08-26T04:36:43.474Z,101140.16
2022-08-26T04:39:14.551Z,101134.25
2022-08-26T04:41:42.083Z,101139.06
2022-08-26T04:44:09.725Z,101148.59
2022-08-26T04:46:43.959Z,101155.91
2022-08-26T04:49:12.553Z,101153.59
2022-08-26T04:51:40.922Z,101156.94
2022-08-26T04:54:08.903Z,101164.72
2022-08-26T04:56:39.736Z,101159.56
2022-08-26T04:59:16.914Z,101160.38
2022-08-26T05:01:52.148Z,101152.69
2022-08-26T05:04:21.394Z,101148.81
2022-08-26T05:06:51.910Z,101165.88
2022-08-26T05:09:19.932Z,101168.09
2022-08-26T05:11:48.520Z,101154.00
2022-08-26T05:14:21.706Z,101162.97
2022-08-26T05:16:50.465Z,101153.69
2022-08-26T05:19:18.880Z,101161.81
2022-08-26T05:21:48.867Z,101156.66
2022-08-26T05:24:17.494Z,101159.50
2022-08-26T05:26:47.215Z,101165.28
2022-08-26T05:29:23.734Z,101163.25
2022-08-26T05:31:53.699Z,101168.41
2022-08-26T05:34:30.274Z,101168.53
2022-08-26T05:36:58.497Z,101160.97
2022-08-26T05:39:26.291Z,101165.22
2022-08-26T05:41:54.026Z,101162.50
2022-08-26T05:44:22.434Z,101162.81
2022-08-26T05:46:51.265Z,101164.81
2022-08-26T05:49:19.107Z,101169.19
2022-08-26T05:51:47.632Z,101164.19
2022-08-26T05:54:22.371Z,101172.47
2022-08-26T05:56:53.311Z,101164.09
2022-08-26T05:59:24.580Z,101168.81
2022-08-26T06:01:55.497Z,101155.41
2022-08-26T06:04:29.906Z,101168.72
2022-08-26T06:06:59.925Z,101172.00
2022-08-26T06:09:32.843Z,101162.88
2022-08-26T06:12:02.258Z,101170.03
2022-08-26T06:14:30.872Z,101169.03
2022-08-26T06:17:00.170Z,101170.09
2022-08-26T06:19:33.117Z,101181.03
2022-08-26T06:22:23.284Z,101179.97
2022-08-26T06:25:10.105Z,101175.78
2022-08-26T06:27:37.904Z,101177.94
2022-08-26T06:30:06.973Z,101186.97
2022-08-26T06:32:35.108Z,101182.75
2022-08-26T06:35:02.884Z,101181.94
2022-08-26T06:37:33.856Z,101187.03
2022-08-26T06:40:03.337Z,101183.09
2022-08-26T06:42:33.327Z,101176.53
2022-08-26T06:45:11.318Z,101176.84
2022-08-26T06:47:40.431Z,101184.88
2022-08-26T06:50:19.815Z,101180.91
2022-08-26T06:52:50.306Z,101177.03
2022-08-26T06:55:27.145Z,101184.88
2022-08-26T06:57:59.367Z,101176.09
2022-08-26T07:00:33.347Z,101177.59
2022-08-26T07:03:07.407Z,101178.16
2022-08-26T07:05:41.021Z,101181.38
2022-08-26T07:08:21.617Z,101173.53
2022-08-26T07:11:39.226Z,101172.13
2022-08-26T07:14:09.536Z,101175.22
2022-08-26T07:16:37.739Z,101174.97
2022-08-26T07:19:11.068Z,101179.91
2022-08-26T07:21:47.730Z,101178.91
2022-08-26T07:24:18.057Z,101175.72
2022-08-26T07:26:45.561Z,101166.28
2022-08-26T07:29:20.894Z,101165.78
2022-08-26T07:31:52.261Z,101156.28
2022-08-26T07:34:27.644Z,101163.34
2022-08-26T07:36:57.289Z,101159.03
2022-08-26T07:39:27.860Z,101158.78
2022-08-26T07:42:08.193Z,101157.22
2022-08-26T07:44:37.799Z,101157.53
2022-08-26T07:47:10.553Z,101155.09
2022-08-26T07:49:56.789Z,101143.09
2022-08-26T07:52:33.074Z,101153.19
2022-08-26T07:55:10.930Z,101157.53
2022-08-26T07:57:40.481Z,101155.66
2022-08-26T08:00:16.473Z,101155.34
2022-08-26T08:02:45.430Z,101151.56
2022-08-26T08:05:17.405Z,101156.50
2022-08-26T08:07:45.630Z,101154.59
2022-08-26T08:10:21.514Z,101149.41
2022-08-26T08:12:56.312Z,101142.88
2022-08-26T08:15:28.489Z,101148.09
2022-08-26T08:18:00.624Z,101148.09
2022-08-26T08:20:30.870Z,101148.69
2022-08-26T08:22:58.671Z,101144.84
2022-08-26T08:25:26.555Z,101153.00
2022-08-26T08:27:54.103Z,101149.16
2022-08-26T08:30:23.278Z,101147.28
2022-08-26T08:32:51.467Z,101143.16
2022-08-26T08:35:22.981Z,101147.78
2022-08-26T08:37:55.511Z,101157.59
2022-08-26T08:40:25.301Z,101150.25
2022-08-26T08:43:05.986Z,101148.31
2022-08-26T08:45:58.259Z,101152.13
2022-08-26T08:48:37.445Z,101145.81
2022-08-26T08:51:33.640Z,101146.59
2022-08-26T08:54:03.033Z,101147.66
2022-08-26T08:56:57.820Z,101150.59
2022-08-26T08:59:45.422Z,101148.97
2022-08-26T09:03:08.216Z,101148.66
2022-08-26T09:05:48.696Z,101143.38
2022-08-26T09:08:22.088Z,101143.69
2022-08-26T09:10:57.407Z,101136.78
2022-08-26T09:13:31.725Z,101138.63
2022-08-26T09:16:07.789Z,101144.34
2022-08-26T09:19:19.089Z,101145.69
2022-08-26T09:22:00.153Z,101140.19
2022-08-26T09:24:42.014Z,101136.91
2022-08-26T09:27:45.566Z,101139.25
2022-08-26T09:30:33.498Z,101135.78
2022-08-26T09:33:10.421Z,101127.25
2022-08-26T09:35:42.313Z,101140.31
2022-08-26T09:38:34.102Z,101130.47
2022-08-26T09:41:05.195Z,101134.50
2022-08-26T09:43:37.527Z,101129.50
2022-08-26T09:46:28.795Z,101136.13
2022-08-26T09:49:27.326Z,101129.78
2022-08-26T09:52:36.446Z,101124.22
2022-08-26T09:55:44.222Z,101128.44
2022-08-26T09:58:41.994Z,101128.53
2022-08-26T10:01:36.701Z,101131.63
2022-08-26T10:04:11.516Z,101124.63
2022-08-26T10:07:09.249Z,101126.63
2022-08-26T10:09:43.673Z,101124.84
2022-08-26T10:12:24.004Z,101125.22
2022-08-26T10:15:04.770Z,101128.28
2022-08-26T10:17:38.792Z,101131.38
2022-08-26T10:20:23.435Z,101126.56
2022-08-26T10:23:06.743Z,101124.34
2022-08-26T10:25:47.921Z,101121.16
2022-08-26T10:28:48.994Z,101122.34
2022-08-26T10:31:38.252Z,101112.75
2022-08-26T10:34:13.971Z,101115.19
2022-08-26T10:37:15.478Z,101114.50
2022-08-26T10:40:27.743Z,101112.66
2022-08-26T10:43:11.068Z,101118.66
2022-08-26T10:45:45.220Z,101117.66
2022-08-26T10:48:26.206Z,101113.47
2022-08-26T10:51:04.430Z,101115.69
2022-08-26T10:53:53.312Z,101113.09
2022-08-26T10:56:51.832Z,101117.88
2022-08-26T10:59:56.540Z,101105.75
2022-08-26T11:02:50.884Z,101118.97
2022-08-26T11:05:27.861Z,101114.81
2022-08-26T11:08:31.071Z,101117.53
2022-08-26T11:11:01.740Z,101115.19
2022-08-26T11:14:02.601Z,101119.59
2022-08-26T11:16:42.861Z,101108.91
2022-08-26T11:19:45.649Z,101107.06
2022-08-26T11:22:33.865Z,101101.69
2022-08-26T11:25:11.404Z,101105.31
2022-08-26T11:27:39.228Z,101097.50
2022-08-26T11:30:36.374Z,101101.19
2022-08-26T11:33:06.010Z,101096.13
2022-08-26T11:35:37.590Z,101093.38
2022-08-26T11:38:14.917Z,101090.72
2022-08-26T11:40:42.933Z,101088.72
2022-08-26T11:43:15.537Z,101080.50
2022-08-26T11:45:48.932Z,101083.41
2022-08-26T11:48:29.300Z,101083.13
2022-08-26T11:51:02.106Z,101085.53
2022-08-26T11:53:33.382Z,101077.09
2022-08-26T11:56:07.342Z,101078.94
2022-08-26T11:58:41.209Z,101083.09
2022-08-26T12:01:11.492Z,101075.88
2022-08-26T12:03:45.398Z,101070.72
2022-08-26T12:06:22.546Z,101071.72
2022-08-26T12:08:54.026Z,101066.44
2022-08-26T12:11:35.082Z,101069.19
2022-08-26T12:14:05.320Z,101056.50
2022-08-26T12:16:40.477Z,101056.78
2022-08-26T12:19:46.504Z,101054.44
2022-08-26T12:22:43.760Z,101036.28
2022-08-26T12:25:24.742Z,101042.34
2022-08-26T12:28:03.984Z,101039.13
2022-08-26T12:30:32.500Z,101034.66
2022-08-26T12:33:22.396Z,101032.03
2022-08-26T12:35:56.728Z,101024.31
2022-08-26T12:38:27.218Z,101022.47
2022-08-26T12:40:57.355Z,101016.28
2022-08-26T12:43:45.276Z,101016.44
2022-08-26T12:46:33.621Z,101006.25
2022-08-26T12:49:02.243Z,101005.03
2022-08-26T12:51:31.953Z,101011.19
2022-08-26T12:54:00.091Z,101009.97
2022-08-26T12:56:36.801Z,101003.47
2022-08-26T12:59:25.726Z,101008.44
2022-08-26T13:01:54.570Z,100999.72
2022-08-26T13:04:44.286Z,100999.19
2022-08-26T13:07:25.260Z,100989.88
2022-08-26T13:09:59.656Z,100990.00
2022-08-26T13:12:38.523Z,100989.16
2022-08-26T13:15:07.144Z,100988.66
2022-08-26T13:17:36.321Z,100982.34
2022-08-26T13:20:08.111Z,100981.44
2022-08-26T13:22:35.794Z,100988.75
2022-08-26T13:25:03.703Z,100972.91
2022-08-26T13:27:33.160Z,100978.19
2022-08-26T13:30:02.133Z,100966.91
2022-08-26T13:32:29.701Z,100960.94
2022-08-26T13:34:58.603Z,100958.06
2022-08-26T13:37:35.014Z,100948.94
2022-08-26T13:40:06.680Z,100943.66
2022-08-26T13:42:50.002Z,100944.47
2022-08-26T13:45:23.577Z,100932.19
2022-08-26T13:47:51.265Z,100937.06
2022-08-26T13:50:18.921Z,100942.22
2022-08-26T13:52:46.956Z,100938.06
2022-08-26T13:55:18.316Z,100936.13
2022-08-26T13:57:45.978Z,100935.13
2022-08-26T14:00:14.426Z,100931.88
2022-08-26T14:02:42.020Z,100932.97
2022-08-26T14:05:13.976Z,100922.44
2022-08-26T14:07:47.581Z,100909.84
2022-08-26T14:10:14.900Z,100909.56
2022-08-26T14:12:42.909Z,100905.50
2022-08-26T14:15:10.666Z,100911.97
2022-08-26T14:17:38.772Z,100888.81
2022-08-26T14:20:09.544Z,100897.97
2022-08-26T14:22:57.397Z,100882.84
2022-08-26T14:25:28.283Z,100888.63
2022-08-26T14:27:57.241Z,100883.53
2022-08-26T14:30:27.841Z,100880.16
2022-08-26T14:32:59.773Z,100879.75
2022-08-26T14:35:32.929Z,100871.31
2022-08-26T14:38:00.945Z,100865.56
2022-08-26T14:40:31.925Z,100867.63
2022-08-26T14:43:02.202Z,100862.09
2022-08-26T14:45:29.844Z,100869.91
2022-08-26T14:48:00.065Z,100863.41
2022-08-26T14:50:28.432Z,100862.94
2022-08-26T14:53:14.504Z,100856.13
2022-08-26T14:55:43.004Z,100856.44
2022-08-26T14:58:10.662Z,100867.47
2022-08-26T15:00:38.588Z,100865.69
2022-08-26T15:03:06.473Z,100858.88
2022-08-26T15:05:34.835Z,100867.56
2022-08-26T15:08:04.814Z,100865.47
2022-08-26T15:10:32.212Z,100865.16
2022-08-26T15:12:59.870Z,100863.94
2022-08-26T15:15:29.611Z,100860.72
2022-08-26T15:17:57.480Z,100864.56
2022-08-26T15:20:25.269Z,100857.44
2022-08-26T15:22:54.010Z,100859.28
2022-08-26T15:25:44.501Z,100858.44
2022-08-26T15:28:16.034Z,100862.13
2022-08-26T15:30:50.673Z,100863.56
2022-08-26T15:33:26.071Z,100863.81
2022-08-26T15:35:57.488Z,100859.75
2022-08-26T15:38:31.660Z,100856.06
2022-08-26T15:41:04.348Z,100857.81
2022-08-26T15:43:32.047Z,100859.13
2022-08-26T15:46:00.765Z,100861.19
2022-08-26T15:48:28.628Z,100860.66
2022-08-26T15:51:03.966Z,100850.31
2022-08-26T15:53:41.546Z,100846.94
2022-08-26T15:56:19.690Z,100839.25
2022-08-26T15:58:53.478Z,100841.88
2022-08-26T16:01:35.915Z,100836.91
2022-08-26T16:04:25.215Z,100831.31
2022-08-26T16:06:57.057Z,100827.97
2022-08-26T16:09:38.276Z,100830.19
2022-08-26T16:12:10.802Z,100837.91
2022-08-26T16:14:56.728Z,100833.47
2022-08-26T16:17:29.302Z,100828.19
2022-08-26T16:20:01.651Z,100831.22
2022-08-26T16:22:59.473Z,100822.41
2022-08-26T16:25:32.347Z,100822.13
2022-08-26T16:28:06.145Z,100821.72
2022-08-26T16:30:43.124Z,100825.19
2022-08-26T16:33:14.817Z,100819.06
2022-08-26T16:36:06.526Z,100823.03
2022-08-26T16:38:38.934Z,100814.69
2022-08-26T16:41:08.984Z,100818.53
2022-08-26T16:43:45.838Z,100831.66
2022-08-26T16:50:07.738Z,100826.28
2022-08-26T16:52:38.466Z,100830.94
2022-08-26T16:55:11.956Z,100838.06
2022-08-26T16:58:02.675Z,100845.16
2022-08-26T17:00:35.229Z,100849.41
2022-08-26T17:03:03.993Z,100845.56
2022-08-26T17:05:32.032Z,100839.38
2022-08-26T17:08:01.889Z,100842.22
2022-08-26T17:10:31.552Z,100847.00
2022-08-26T17:12:59.850Z,100842.34
2022-08-26T17:15:27.843Z,100841.19
2022-08-26T17:17:57.045Z,100837.75
2022-08-26T17:20:25.771Z,100843.56
2022-08-26T17:22:55.551Z,100837.16
2022-08-26T17:25:29.290Z,100836.66
2022-08-26T17:30:30.842Z,100834.38
2022-08-26T17:32:59.406Z,100843.53
2022-08-26T17:35:27.812Z,100836.81
2022-08-26T17:37:56.888Z,100835.22
2022-08-26T17:40:27.488Z,100828.19
2022-08-26T17:42:56.016Z,100827.78
2022-08-26T17:45:29.916Z,100835.78
2022-08-26T17:47:57.866Z,100836.00
2022-08-26T17:50:26.359Z,100841.69
2022-08-26T17:52:54.353Z,100842.56
2022-08-26T17:55:23.525Z,100838.72
2022-08-26T18:00:49.332Z,100841.25
2022-08-26T18:03:19.513Z,100846.88
2022-08-26T18:05:53.787Z,100851.44
2022-08-26T18:08:22.191Z,100861.06
2022-08-26T18:10:52.095Z,100859.97
2022-08-26T18:13:25.805Z,100864.72
2022-08-26T18:15:56.209Z,100864.94
2022-08-26T18:18:28.631Z,100867.25
2022-08-26T18:21:02.372Z,100877.25
2022-08-26T18:23:31.946Z,100876.28
2022-08-26T18:26:00.037Z,100884.13
2022-08-26T18:28:28.576Z,100882.72
2022-08-26T18:30:58.698Z,100885.16
2022-08-26T18:33:35.026Z,100888.88
2022-08-26T18:36:05.710Z,100883.91
2022-08-26T18:38:33.682Z,100884.19
2022-08-26T18:41:06.884Z,100887.78
2022-08-26T18:43:45.990Z,100884.44
2022-08-26T18:46:15.329Z,100887.38
2022-08-26T18:48:50.742Z,100891.53
2022-08-26T18:51:28.853Z,100895.38
2022-08-26T18:53:57.790Z,100908.69
2022-08-26T18:56:25.627Z,100902.88
2022-08-26T18:58:53.597Z,100906.41
2022-08-26T19:01:25.467Z,100903.66
2022-08-26T19:03:56.497Z,100909.38
2022-08-26T19:06:26.623Z,100909.94
2022-08-26T19:08:59.811Z,100910.25
2022-08-26T19:11:32.189Z,100910.34
2022-08-26T19:14:03.057Z,100909.00
2022-08-26T19:16:32.086Z,100906.28
2022-08-26T19:19:04.545Z,100903.53
2022-08-26T19:21:34.554Z,100916.69
2022-08-26T19:24:05.953Z,100914.53
2022-08-26T19:26:34.767Z,100925.50
2022-08-26T19:29:06.191Z,100915.44
2022-08-26T19:31:33.967Z,100909.66
2022-08-26T19:34:01.765Z,100895.69
2022-08-26T19:36:31.913Z,100907.81
2022-08-26T19:39:01.041Z,100906.56
2022-08-26T19:41:36.840Z,100919.63
2022-08-26T19:44:13.833Z,100922.66
2022-08-26T19:46:44.804Z,100929.78
2022-08-26T19:49:13.362Z,100925.94
2022-08-26T19:51:46.347Z,100929.47
2022-08-26T19:54:14.336Z,100937.44
2022-08-26T19:56:42.114Z,100935.56
2022-08-26T19:59:09.843Z,100935.63
2022-08-26T20:01:39.779Z,100933.78
2022-08-26T20:04:10.840Z,100929.97
2022-08-26T20:06:45.843Z,100929.06
2022-08-26T20:09:22.539Z,100936.19
2022-08-26T20:11:50.802Z,100933.16
2022-08-26T20:14:24.966Z,100937.78
2022-08-26T20:16:59.958Z,100933.16
2022-08-26T20:20:03.060Z,100932.59
2022-08-26T20:22:31.871Z,100931.50
2022-08-26T20:25:00.947Z,100933.16
2022-08-26T20:27:35.565Z,100926.56
2022-08-26T20:30:08.330Z,100931.81
2022-08-26T20:32:38.778Z,100932.59
2022-08-26T20:35:11.935Z,100928.53
2022-08-26T20:37:41.511Z,100925.78
2022-08-26T20:40:12.013Z,100924.19
2022-08-26T20:42:40.181Z,100926.41
2022-08-26T20:45:09.077Z,100928.31
2022-08-26T20:47:37.801Z,100928.63
2022-08-26T20:50:08.540Z,100934.69
2022-08-26T20:52:43.388Z,100945.63
2022-08-26T20:55:15.821Z,100944.00
2022-08-26T20:57:48.710Z,100938.28
2022-08-26T21:00:18.540Z,100944.34
2022-08-26T21:02:57.558Z,100955.69
2022-08-26T21:05:25.668Z,100966.56
2022-08-26T21:07:53.594Z,100974.31
2022-08-26T21:10:23.104Z,100983.56
2022-08-26T21:12:53.231Z,100980.22
2022-08-26T21:15:30.043Z,100980.81
2022-08-26T21:18:00.267Z,100981.63
2022-08-26T21:20:28.704Z,100987.38
2022-08-26T21:23:03.173Z,100987.38
2022-08-26T21:25:51.601Z,100984.34
2022-08-26T21:28:37.285Z,100990.16
2022-08-26T21:31:13.984Z,100989.13
2022-08-26T21:33:43.719Z,100981.00
2022-08-26T21:36:29.958Z,100977.72
2022-08-26T21:39:17.767Z,100975.31
2022-08-26T21:41:53.424Z,100972.84
2022-08-26T21:44:21.195Z,100970.69
2022-08-26T21:46:51.236Z,100975.38
2022-08-26T21:49:18.871Z,100968.28
2022-08-26T21:51:52.390Z,100974.53
2022-08-26T21:54:26.152Z,100973.50
2022-08-26T21:57:00.774Z,100980.34
2022-08-26T21:59:28.965Z,100980.13
2022-08-26T22:02:06.585Z,100986.69
2022-08-26T22:04:48.670Z,100979.66
2022-08-26T22:07:28.220Z,100971.19
2022-08-26T22:10:12.736Z,100969.56
2022-08-26T22:12:41.494Z,100966.59
2022-08-26T22:15:13.942Z,100972.06
2022-08-26T22:18:00.941Z,100969.34
2022-08-26T22:20:29.654Z,100970.69
2022-08-26T22:23:04.943Z,100971.53
2022-08-26T22:25:42.087Z,100970.72
2022-08-26T22:28:13.216Z,100977.00
2022-08-26T22:30:44.693Z,100982.75
2022-08-26T22:33:41.895Z,100985.19
2022-08-26T22:36:17.697Z,100990.44
2022-08-26T22:38:46.421Z,100994.75
2022-08-26T22:41:29.532Z,100987.69
2022-08-26T22:47:02.409Z,100998.41
2022-08-26T22:49:30.641Z,101003.34
2022-08-26T22:51:59.676Z,101002.50
2022-08-26T22:54:44.648Z,101004.16
2022-08-26T22:57:13.079Z,100995.47
2022-08-26T22:59:49.691Z,101002.31
2022-08-26T23:02:31.100Z,100993.31
2022-08-26T23:04:59.484Z,101007.78
2022-08-26T23:08:02.376Z,101008.34
2022-08-26T23:13:23.400Z,100996.16
2022-08-26T23:16:02.451Z,101009.53
2022-08-26T23:18:31.839Z,101012.03
2022-08-26T23:20:59.679Z,101008.53
2022-08-26T23:23:28.104Z,100996.56
2022-08-26T23:25:57.489Z,100994.91
2022-08-26T23:28:26.396Z,100988.66
2022-08-26T23:30:54.653Z,100986.22
2022-08-26T23:33:46.649Z,100985.09
2022-08-26T23:36:17.849Z,100986.22
2022-08-26T23:38:52.458Z,100982.44
2022-08-26T23:41:25.006Z,100985.41
2022-08-26T23:43:53.401Z,100966.84
2022-08-26T23:46:22.867Z,100968.75
2022-08-26T23:48:53.549Z,100963.00
2022-08-26T23:51:41.108Z,100949.94
2022-08-26T23:54:09.166Z,100940.38
2022-08-26T23:56:39.865Z,100940.44
2022-08-26T23:59:08.874Z,100956.84
